sensor_id;sensor_type;location;lat;lon;timestamp;P1;durP1;ratioP1;P2;durP2;ratioP2
68229;SDS011;55048;52.220;5.160;2023-07-29T00:00:36;3.83;;;0.70;;
68229;SDS011;55048;52.220;5.160;2023-07-29T00:03:01;0.90;;;0.60;;
68229;SDS011;55048;52.220;5.160;2023-07-29T00:05:27;2.50;;;0.50;;
68229;SDS011;55048;52.220;5.160;2023-07-29T00:07:52;3.30;;;0.60;;
68229;SDS011;55048;52.220;5.160;2023-07-29T00:10:17;2.90;;;0.70;;
68229;SDS011;55048;52.220;5.160;2023-07-29T00:12:43;1.92;;;1.00;;
68229;SDS011;55048;52.220;5.160;2023-07-29T00:15:08;1.35;;;0.60;;
68229;SDS011;55048;52.220;5.160;2023-07-29T00:17:34;5.15;;;0.63;;
68229;SDS011;55048;52.220;5.160;2023-07-29T00:20:00;2.35;;;0.52;;
68229;SDS011;55048;52.220;5.160;2023-07-29T00:22:25;3.38;;;0.75;;
68229;SDS011;55048;52.220;5.160;2023-07-29T00:24:51;3.33;;;0.70;;
68229;SDS011;55048;52.220;5.160;2023-07-29T00:27:20;4.00;;;1.00;;
68229;SDS011;55048;52.220;5.160;2023-07-29T00:29:47;2.33;;;0.70;;
68229;SDS011;55048;52.220;5.160;2023-07-29T00:32:13;1.98;;;0.70;;
68229;SDS011;55048;52.220;5.160;2023-07-29T00:34:39;2.90;;;0.60;;
68229;SDS011;55048;52.220;5.160;2023-07-29T00:37:04;1.42;;;0.60;;
68229;SDS011;55048;52.220;5.160;2023-07-29T00:39:31;4.53;;;0.90;;
68229;SDS011;55048;52.220;5.160;2023-07-29T00:41:57;2.08;;;0.70;;
68229;SDS011;55048;52.220;5.160;2023-07-29T00:44:23;3.90;;;0.70;;
68229;SDS011;55048;52.220;5.160;2023-07-29T00:46:49;1.00;;;0.50;;
68229;SDS011;55048;52.220;5.160;2023-07-29T00:49:19;7.47;;;0.75;;
68229;SDS011;55048;52.220;5.160;2023-07-29T00:51:46;2.50;;;0.80;;
68229;SDS011;55048;52.220;5.160;2023-07-29T00:54:12;3.22;;;0.85;;
68229;SDS011;55048;52.220;5.160;2023-07-29T00:56:39;3.70;;;0.90;;
68229;SDS011;55048;52.220;5.160;2023-07-29T00:59:05;3.58;;;0.70;;
68229;SDS011;55048;52.220;5.160;2023-07-29T01:01:32;2.33;;;0.80;;
68229;SDS011;55048;52.220;5.160;2023-07-29T01:03:57;3.25;;;0.90;;
68229;SDS011;55048;52.220;5.160;2023-07-29T01:06:27;6.20;;;0.95;;
68229;SDS011;55048;52.220;5.160;2023-07-29T01:09:07;2.97;;;0.63;;
68229;SDS011;55048;52.220;5.160;2023-07-29T01:11:41;5.68;;;0.90;;
68229;SDS011;55048;52.220;5.160;2023-07-29T01:14:32;4.45;;;0.85;;
68229;SDS011;55048;52.220;5.160;2023-07-29T01:17:04;5.35;;;0.80;;
68229;SDS011;55048;52.220;5.160;2023-07-29T01:19:41;3.20;;;0.70;;
68229;SDS011;55048;52.220;5.160;2023-07-29T01:22:24;6.85;;;0.90;;
68229;SDS011;55048;52.220;5.160;2023-07-29T01:24:50;4.30;;;0.90;;
68229;SDS011;55048;52.220;5.160;2023-07-29T01:27:15;1.38;;;0.70;;
68229;SDS011;55048;52.220;5.160;2023-07-29T01:29:41;5.30;;;1.10;;
68229;SDS011;55048;52.220;5.160;2023-07-29T01:32:10;9.07;;;1.10;;
68229;SDS011;55048;52.220;5.160;2023-07-29T01:34:46;10.65;;;1.13;;
68229;SDS011;55048;52.220;5.160;2023-07-29T01:37:19;6.22;;;1.10;;
68229;SDS011;55048;52.220;5.160;2023-07-29T01:39:48;5.85;;;1.25;;
68229;SDS011;55048;52.220;5.160;2023-07-29T01:42:15;3.20;;;1.00;;
68229;SDS011;55048;52.220;5.160;2023-07-29T01:44:41;5.00;;;1.00;;
68229;SDS011;55048;52.220;5.160;2023-07-29T01:47:07;6.97;;;1.23;;
68229;SDS011;55048;52.220;5.160;2023-07-29T01:49:33;3.70;;;1.02;;
68229;SDS011;55048;52.220;5.160;2023-07-29T01:51:59;4.70;;;1.08;;
68229;SDS011;55048;52.220;5.160;2023-07-29T01:54:24;4.63;;;1.33;;
68229;SDS011;55048;52.220;5.160;2023-07-29T01:56:50;5.90;;;1.48;;
68229;SDS011;55048;52.220;5.160;2023-07-29T01:59:16;6.70;;;1.50;;
68229;SDS011;55048;52.220;5.160;2023-07-29T02:01:42;3.75;;;1.20;;
68229;SDS011;55048;52.220;5.160;2023-07-29T02:04:08;6.07;;;1.50;;
68229;SDS011;55048;52.220;5.160;2023-07-29T02:06:33;8.48;;;1.67;;
68229;SDS011;55048;52.220;5.160;2023-07-29T02:08:59;3.88;;;1.73;;
68229;SDS011;55048;52.220;5.160;2023-07-29T02:11:25;6.15;;;2.33;;
68229;SDS011;55048;52.220;5.160;2023-07-29T02:13:53;4.32;;;2.00;;
68229;SDS011;55048;52.220;5.160;2023-07-29T02:16:20;7.70;;;2.50;;
68229;SDS011;55048;52.220;5.160;2023-07-29T02:18:47;8.65;;;2.88;;
68229;SDS011;55048;52.220;5.160;2023-07-29T02:21:14;11.40;;;2.63;;
68229;SDS011;55048;52.220;5.160;2023-07-29T02:23:39;10.75;;;2.33;;
68229;SDS011;55048;52.220;5.160;2023-07-29T02:26:05;10.02;;;2.30;;
68229;SDS011;55048;52.220;5.160;2023-07-29T02:28:31;9.18;;;2.22;;
68229;SDS011;55048;52.220;5.160;2023-07-29T02:31:14;4.72;;;2.20;;
68229;SDS011;55048;52.220;5.160;2023-07-29T02:33:40;6.75;;;2.30;;
68229;SDS011;55048;52.220;5.160;2023-07-29T02:36:05;10.02;;;2.00;;
68229;SDS011;55048;52.220;5.160;2023-07-29T02:38:31;10.02;;;2.35;;
68229;SDS011;55048;52.220;5.160;2023-07-29T02:40:56;4.88;;;2.40;;
68229;SDS011;55048;52.220;5.160;2023-07-29T02:43:22;6.75;;;1.75;;
68229;SDS011;55048;52.220;5.160;2023-07-29T02:45:47;4.57;;;2.08;;
68229;SDS011;55048;52.220;5.160;2023-07-29T02:48:12;4.28;;;1.98;;
68229;SDS011;55048;52.220;5.160;2023-07-29T02:50:38;5.65;;;2.00;;
68229;SDS011;55048;52.220;5.160;2023-07-29T02:53:03;8.27;;;1.88;;
68229;SDS011;55048;52.220;5.160;2023-07-29T02:55:29;3.53;;;1.70;;
68229;SDS011;55048;52.220;5.160;2023-07-29T02:57:54;10.15;;;2.15;;
68229;SDS011;55048;52.220;5.160;2023-07-29T03:00:19;4.78;;;1.90;;
68229;SDS011;55048;52.220;5.160;2023-07-29T03:02:45;5.45;;;1.83;;
68229;SDS011;55048;52.220;5.160;2023-07-29T03:05:11;5.85;;;2.25;;
68229;SDS011;55048;52.220;5.160;2023-07-29T03:07:36;5.55;;;2.10;;
68229;SDS011;55048;52.220;5.160;2023-07-29T03:10:02;9.73;;;2.08;;
68229;SDS011;55048;52.220;5.160;2023-07-29T03:12:27;6.45;;;2.05;;
68229;SDS011;55048;52.220;5.160;2023-07-29T03:14:53;4.63;;;1.80;;
68229;SDS011;55048;52.220;5.160;2023-07-29T03:17:18;7.47;;;1.98;;
68229;SDS011;55048;52.220;5.160;2023-07-29T03:19:44;5.13;;;1.75;;
68229;SDS011;55048;52.220;5.160;2023-07-29T03:22:09;6.82;;;1.90;;
68229;SDS011;55048;52.220;5.160;2023-07-29T03:24:35;8.70;;;2.58;;
68229;SDS011;55048;52.220;5.160;2023-07-29T03:27:00;14.45;;;2.20;;
68229;SDS011;55048;52.220;5.160;2023-07-29T03:29:26;4.07;;;1.92;;
68229;SDS011;55048;52.220;5.160;2023-07-29T03:31:51;6.53;;;2.20;;
68229;SDS011;55048;52.220;5.160;2023-07-29T03:34:17;5.25;;;2.35;;
68229;SDS011;55048;52.220;5.160;2023-07-29T03:36:45;6.82;;;2.08;;
68229;SDS011;55048;52.220;5.160;2023-07-29T03:39:12;10.70;;;2.75;;
68229;SDS011;55048;52.220;5.160;2023-07-29T03:41:38;10.55;;;2.08;;
68229;SDS011;55048;52.220;5.160;2023-07-29T03:44:04;6.07;;;2.00;;
68229;SDS011;55048;52.220;5.160;2023-07-29T03:46:29;6.50;;;2.22;;
68229;SDS011;55048;52.220;5.160;2023-07-29T03:48:55;8.20;;;2.30;;
68229;SDS011;55048;52.220;5.160;2023-07-29T03:51:20;4.00;;;2.17;;
68229;SDS011;55048;52.220;5.160;2023-07-29T03:53:46;5.63;;;1.92;;
68229;SDS011;55048;52.220;5.160;2023-07-29T03:56:12;8.90;;;1.80;;
68229;SDS011;55048;52.220;5.160;2023-07-29T03:58:37;6.53;;;1.60;;
68229;SDS011;55048;52.220;5.160;2023-07-29T04:01:03;5.13;;;1.70;;
68229;SDS011;55048;52.220;5.160;2023-07-29T04:03:29;5.25;;;1.50;;
68229;SDS011;55048;52.220;5.160;2023-07-29T04:05:55;3.95;;;1.30;;
68229;SDS011;55048;52.220;5.160;2023-07-29T04:08:21;5.20;;;1.45;;
68229;SDS011;55048;52.220;5.160;2023-07-29T04:10:47;3.63;;;1.67;;
68229;SDS011;55048;52.220;5.160;2023-07-29T04:13:13;3.55;;;1.30;;
68229;SDS011;55048;52.220;5.160;2023-07-29T04:15:38;8.73;;;1.38;;
68229;SDS011;55048;52.220;5.160;2023-07-29T04:18:04;5.47;;;1.50;;
68229;SDS011;55048;52.220;5.160;2023-07-29T04:20:29;3.65;;;1.30;;
68229;SDS011;55048;52.220;5.160;2023-07-29T04:22:55;4.28;;;1.33;;
68229;SDS011;55048;52.220;5.160;2023-07-29T04:25:20;3.50;;;1.00;;
68229;SDS011;55048;52.220;5.160;2023-07-29T04:27:46;4.13;;;1.15;;
68229;SDS011;55048;52.220;5.160;2023-07-29T04:30:11;8.27;;;1.50;;
68229;SDS011;55048;52.220;5.160;2023-07-29T04:32:37;4.13;;;1.42;;
68229;SDS011;55048;52.220;5.160;2023-07-29T04:35:06;3.22;;;1.30;;
68229;SDS011;55048;52.220;5.160;2023-07-29T04:37:35;3.83;;;1.45;;
68229;SDS011;55048;52.220;5.160;2023-07-29T04:40:01;3.88;;;1.42;;
68229;SDS011;55048;52.220;5.160;2023-07-29T04:42:26;1.92;;;1.20;;
68229;SDS011;55048;52.220;5.160;2023-07-29T04:44:52;3.83;;;1.40;;
68229;SDS011;55048;52.220;5.160;2023-07-29T04:47:17;3.88;;;1.40;;
68229;SDS011;55048;52.220;5.160;2023-07-29T04:49:43;4.13;;;1.40;;
68229;SDS011;55048;52.220;5.160;2023-07-29T04:52:08;4.28;;;1.80;;
68229;SDS011;55048;52.220;5.160;2023-07-29T04:54:34;6.30;;;1.50;;
68229;SDS011;55048;52.220;5.160;2023-07-29T04:56:59;4.30;;;1.60;;
68229;SDS011;55048;52.220;5.160;2023-07-29T04:59:26;3.63;;;1.55;;
68229;SDS011;55048;52.220;5.160;2023-07-29T05:01:52;3.53;;;1.33;;
68229;SDS011;55048;52.220;5.160;2023-07-29T05:04:17;5.05;;;1.50;;
68229;SDS011;55048;52.220;5.160;2023-07-29T05:06:42;6.10;;;1.58;;
68229;SDS011;55048;52.220;5.160;2023-07-29T05:09:18;2.28;;;1.30;;
68229;SDS011;55048;52.220;5.160;2023-07-29T05:11:47;5.07;;;1.58;;
68229;SDS011;55048;52.220;5.160;2023-07-29T05:14:14;3.60;;;1.33;;
68229;SDS011;55048;52.220;5.160;2023-07-29T05:16:41;5.30;;;1.30;;
68229;SDS011;55048;52.220;5.160;2023-07-29T05:19:07;5.05;;;1.45;;
68229;SDS011;55048;52.220;5.160;2023-07-29T05:21:33;5.70;;;1.63;;
68229;SDS011;55048;52.220;5.160;2023-07-29T05:23:58;9.05;;;1.80;;
68229;SDS011;55048;52.220;5.160;2023-07-29T05:26:24;4.55;;;1.60;;
68229;SDS011;55048;52.220;5.160;2023-07-29T05:28:50;4.95;;;1.55;;
68229;SDS011;55048;52.220;5.160;2023-07-29T05:31:15;4.68;;;1.70;;
68229;SDS011;55048;52.220;5.160;2023-07-29T05:33:41;7.28;;;1.55;;
68229;SDS011;55048;52.220;5.160;2023-07-29T05:36:06;6.05;;;1.88;;
68229;SDS011;55048;52.220;5.160;2023-07-29T05:38:32;6.28;;;1.70;;
68229;SDS011;55048;52.220;5.160;2023-07-29T05:40:57;5.43;;;1.60;;
68229;SDS011;55048;52.220;5.160;2023-07-29T05:43:26;4.38;;;1.70;;
68229;SDS011;55048;52.220;5.160;2023-07-29T05:45:52;5.20;;;1.98;;
68229;SDS011;55048;52.220;5.160;2023-07-29T05:48:19;5.70;;;1.98;;
68229;SDS011;55048;52.220;5.160;2023-07-29T05:50:45;5.30;;;1.60;;
68229;SDS011;55048;52.220;5.160;2023-07-29T05:53:10;7.38;;;1.85;;
68229;SDS011;55048;52.220;5.160;2023-07-29T05:55:36;5.95;;;2.08;;
68229;SDS011;55048;52.220;5.160;2023-07-29T05:58:01;3.65;;;1.55;;
68229;SDS011;55048;52.220;5.160;2023-07-29T06:00:27;5.35;;;1.83;;
68229;SDS011;55048;52.220;5.160;2023-07-29T06:02:52;3.55;;;1.98;;
68229;SDS011;55048;52.220;5.160;2023-07-29T06:05:20;5.82;;;2.30;;
68229;SDS011;55048;52.220;5.160;2023-07-29T06:07:46;4.43;;;2.05;;
68229;SDS011;55048;52.220;5.160;2023-07-29T06:10:13;4.72;;;1.80;;
68229;SDS011;55048;52.220;5.160;2023-07-29T06:12:44;6.00;;;1.92;;
68229;SDS011;55048;52.220;5.160;2023-07-29T06:15:10;4.72;;;2.38;;
68229;SDS011;55048;52.220;5.160;2023-07-29T06:17:37;5.10;;;1.83;;
68229;SDS011;55048;52.220;5.160;2023-07-29T06:20:03;7.50;;;1.60;;
68229;SDS011;55048;52.220;5.160;2023-07-29T06:22:29;7.55;;;2.10;;
68229;SDS011;55048;52.220;5.160;2023-07-29T06:24:54;6.07;;;2.15;;
68229;SDS011;55048;52.220;5.160;2023-07-29T06:27:20;4.25;;;1.80;;
68229;SDS011;55048;52.220;5.160;2023-07-29T06:29:45;6.32;;;2.13;;
68229;SDS011;55048;52.220;5.160;2023-07-29T06:32:11;8.77;;;2.60;;
68229;SDS011;55048;52.220;5.160;2023-07-29T06:34:36;6.55;;;2.17;;
68229;SDS011;55048;52.220;5.160;2023-07-29T06:37:01;3.22;;;1.65;;
68229;SDS011;55048;52.220;5.160;2023-07-29T06:39:27;4.90;;;2.20;;
68229;SDS011;55048;52.220;5.160;2023-07-29T06:41:52;3.78;;;1.67;;
68229;SDS011;55048;52.220;5.160;2023-07-29T06:44:18;6.93;;;2.30;;
68229;SDS011;55048;52.220;5.160;2023-07-29T06:46:43;6.15;;;2.20;;
68229;SDS011;55048;52.220;5.160;2023-07-29T06:49:09;6.10;;;2.50;;
68229;SDS011;55048;52.220;5.160;2023-07-29T06:51:34;6.10;;;2.22;;
68229;SDS011;55048;52.220;5.160;2023-07-29T06:54:03;6.00;;;2.30;;
68229;SDS011;55048;52.220;5.160;2023-07-29T06:56:29;6.70;;;2.50;;
68229;SDS011;55048;52.220;5.160;2023-07-29T06:58:54;5.43;;;2.58;;
68229;SDS011;55048;52.220;5.160;2023-07-29T07:01:20;5.40;;;2.13;;
68229;SDS011;55048;52.220;5.160;2023-07-29T07:03:46;4.13;;;2.28;;
68229;SDS011;55048;52.220;5.160;2023-07-29T07:06:12;7.70;;;2.63;;
68229;SDS011;55048;52.220;5.160;2023-07-29T07:08:37;8.48;;;2.38;;
68229;SDS011;55048;52.220;5.160;2023-07-29T07:11:03;9.15;;;2.88;;
68229;SDS011;55048;52.220;5.160;2023-07-29T07:13:28;5.25;;;2.17;;
68229;SDS011;55048;52.220;5.160;2023-07-29T07:15:54;5.90;;;2.22;;
68229;SDS011;55048;52.220;5.160;2023-07-29T07:18:20;5.03;;;2.42;;
68229;SDS011;55048;52.220;5.160;2023-07-29T07:20:51;6.28;;;2.97;;
68229;SDS011;55048;52.220;5.160;2023-07-29T07:23:17;5.07;;;2.10;;
68229;SDS011;55048;52.220;5.160;2023-07-29T07:25:43;6.93;;;2.65;;
68229;SDS011;55048;52.220;5.160;2023-07-29T07:28:09;5.75;;;2.30;;
68229;SDS011;55048;52.220;5.160;2023-07-29T07:30:34;7.45;;;1.92;;
68229;SDS011;55048;52.220;5.160;2023-07-29T07:33:00;10.00;;;2.55;;
68229;SDS011;55048;52.220;5.160;2023-07-29T07:35:25;5.72;;;1.70;;
68229;SDS011;55048;52.220;5.160;2023-07-29T07:37:51;6.50;;;2.58;;
68229;SDS011;55048;52.220;5.160;2023-07-29T07:40:16;3.03;;;1.90;;
68229;SDS011;55048;52.220;5.160;2023-07-29T07:42:42;6.28;;;2.20;;
68229;SDS011;55048;52.220;5.160;2023-07-29T07:45:07;6.18;;;2.15;;
68229;SDS011;55048;52.220;5.160;2023-07-29T07:47:33;5.93;;;2.17;;
68229;SDS011;55048;52.220;5.160;2023-07-29T07:49:58;5.18;;;2.22;;
68229;SDS011;55048;52.220;5.160;2023-07-29T07:52:24;5.75;;;2.20;;
68229;SDS011;55048;52.220;5.160;2023-07-29T07:54:52;6.35;;;2.22;;
68229;SDS011;55048;52.220;5.160;2023-07-29T07:57:19;4.55;;;2.00;;
68229;SDS011;55048;52.220;5.160;2023-07-29T07:59:45;6.65;;;2.20;;
68229;SDS011;55048;52.220;5.160;2023-07-29T08:02:11;5.80;;;1.83;;
68229;SDS011;55048;52.220;5.160;2023-07-29T08:04:36;7.63;;;1.90;;
68229;SDS011;55048;52.220;5.160;2023-07-29T08:07:01;4.28;;;1.55;;
68229;SDS011;55048;52.220;5.160;2023-07-29T08:09:27;3.83;;;1.55;;
68229;SDS011;55048;52.220;5.160;2023-07-29T08:11:52;9.98;;;1.85;;
68229;SDS011;55048;52.220;5.160;2023-07-29T08:14:18;4.38;;;1.50;;
68229;SDS011;55048;52.220;5.160;2023-07-29T08:16:43;4.05;;;1.70;;
68229;SDS011;55048;52.220;5.160;2023-07-29T08:19:08;4.18;;;2.00;;
68229;SDS011;55048;52.220;5.160;2023-07-29T08:21:35;11.25;;;1.85;;
68229;SDS011;55048;52.220;5.160;2023-07-29T08:24:00;3.28;;;1.40;;
68229;SDS011;55048;52.220;5.160;2023-07-29T08:26:26;5.93;;;1.40;;
68229;SDS011;55048;52.220;5.160;2023-07-29T08:28:51;4.43;;;1.20;;
68229;SDS011;55048;52.220;5.160;2023-07-29T08:31:17;3.00;;;1.20;;
68229;SDS011;55048;52.220;5.160;2023-07-29T08:33:42;4.35;;;1.00;;
68229;SDS011;55048;52.220;5.160;2023-07-29T08:36:07;10.20;;;1.60;;
68229;SDS011;55048;52.220;5.160;2023-07-29T08:38:33;4.95;;;1.30;;
68229;SDS011;55048;52.220;5.160;2023-07-29T08:43:30;4.30;;;1.05;;
68229;SDS011;55048;52.220;5.160;2023-07-29T08:45:58;4.35;;;0.90;;
68229;SDS011;55048;52.220;5.160;2023-07-29T08:48:45;3.92;;;0.70;;
68229;SDS011;55048;52.220;5.160;2023-07-29T08:51:11;2.38;;;0.80;;
68229;SDS011;55048;52.220;5.160;2023-07-29T08:53:37;3.08;;;0.65;;
68229;SDS011;55048;52.220;5.160;2023-07-29T08:56:04;4.07;;;0.70;;
68229;SDS011;55048;52.220;5.160;2023-07-29T08:58:30;7.50;;;0.80;;
68229;SDS011;55048;52.220;5.160;2023-07-29T09:00:56;5.38;;;0.60;;
68229;SDS011;55048;52.220;5.160;2023-07-29T09:03:22;6.00;;;0.70;;
68229;SDS011;55048;52.220;5.160;2023-07-29T09:05:48;6.25;;;0.60;;
68229;SDS011;55048;52.220;5.160;2023-07-29T09:08:14;9.02;;;1.45;;
68229;SDS011;55048;52.220;5.160;2023-07-29T09:10:39;5.93;;;0.75;;
68229;SDS011;55048;52.220;5.160;2023-07-29T09:13:07;5.70;;;0.93;;
68229;SDS011;55048;52.220;5.160;2023-07-29T09:15:33;4.00;;;1.00;;
68229;SDS011;55048;52.220;5.160;2023-07-29T09:17:59;5.15;;;0.90;;
68229;SDS011;55048;52.220;5.160;2023-07-29T09:20:34;3.15;;;0.73;;
68229;SDS011;55048;52.220;5.160;2023-07-29T09:23:00;3.85;;;0.80;;
68229;SDS011;55048;52.220;5.160;2023-07-29T09:25:26;2.58;;;0.85;;
68229;SDS011;55048;52.220;5.160;2023-07-29T09:27:52;3.65;;;0.80;;
68229;SDS011;55048;52.220;5.160;2023-07-29T09:30:23;5.38;;;0.70;;
68229;SDS011;55048;52.220;5.160;2023-07-29T09:32:52;2.85;;;0.70;;
68229;SDS011;55048;52.220;5.160;2023-07-29T09:35:21;4.75;;;0.70;;
68229;SDS011;55048;52.220;5.160;2023-07-29T09:37:47;5.70;;;0.90;;
68229;SDS011;55048;52.220;5.160;2023-07-29T09:40:16;3.10;;;0.60;;
68229;SDS011;55048;52.220;5.160;2023-07-29T09:42:49;2.97;;;0.63;;
68229;SDS011;55048;52.220;5.160;2023-07-29T09:45:26;3.95;;;0.70;;
68229;SDS011;55048;52.220;5.160;2023-07-29T09:47:52;4.80;;;0.63;;
68229;SDS011;55048;52.220;5.160;2023-07-29T09:50:23;2.80;;;0.60;;
68229;SDS011;55048;52.220;5.160;2023-07-29T09:55:16;3.35;;;0.60;;
68229;SDS011;55048;52.220;5.160;2023-07-29T09:57:44;3.90;;;0.82;;
68229;SDS011;55048;52.220;5.160;2023-07-29T10:00:13;8.70;;;0.60;;
68229;SDS011;55048;52.220;5.160;2023-07-29T10:02:39;5.38;;;0.77;;
68229;SDS011;55048;52.220;5.160;2023-07-29T10:05:06;2.72;;;0.80;;
68229;SDS011;55048;52.220;5.160;2023-07-29T10:07:34;2.38;;;0.90;;
68229;SDS011;55048;52.220;5.160;2023-07-29T10:10:02;2.70;;;1.10;;
68229;SDS011;55048;52.220;5.160;2023-07-29T10:12:30;6.80;;;1.00;;
68229;SDS011;55048;52.220;5.160;2023-07-29T10:14:56;3.05;;;0.80;;
68229;SDS011;55048;52.220;5.160;2023-07-29T10:17:25;4.72;;;0.90;;
68229;SDS011;55048;52.220;5.160;2023-07-29T10:19:51;5.13;;;0.90;;
68229;SDS011;55048;52.220;5.160;2023-07-29T10:22:18;4.05;;;0.70;;
68229;SDS011;55048;52.220;5.160;2023-07-29T10:24:46;3.00;;;0.70;;
68229;SDS011;55048;52.220;5.160;2023-07-29T10:27:14;2.25;;;0.80;;
68229;SDS011;55048;52.220;5.160;2023-07-29T10:29:44;3.45;;;0.90;;
68229;SDS011;55048;52.220;5.160;2023-07-29T10:32:10;4.55;;;0.77;;
68229;SDS011;55048;52.220;5.160;2023-07-29T10:34:36;3.75;;;1.10;;
68229;SDS011;55048;52.220;5.160;2023-07-29T10:37:04;2.63;;;0.80;;
68229;SDS011;55048;52.220;5.160;2023-07-29T10:39:39;1.63;;;0.77;;
68229;SDS011;55048;52.220;5.160;2023-07-29T10:42:05;1.40;;;0.70;;
68229;SDS011;55048;52.220;5.160;2023-07-29T10:47:18;1.13;;;0.70;;
68229;SDS011;55048;52.220;5.160;2023-07-29T10:49:55;3.58;;;0.90;;
68229;SDS011;55048;52.220;5.160;2023-07-29T10:55:04;4.30;;;0.93;;
68229;SDS011;55048;52.220;5.160;2023-07-29T10:57:49;2.85;;;1.02;;
68229;SDS011;55048;52.220;5.160;2023-07-29T11:00:15;2.80;;;1.08;;
68229;SDS011;55048;52.220;5.160;2023-07-29T11:02:41;3.58;;;1.10;;
68229;SDS011;55048;52.220;5.160;2023-07-29T11:05:07;4.47;;;1.17;;
68229;SDS011;55048;52.220;5.160;2023-07-29T11:07:44;6.35;;;1.52;;
68229;SDS011;55048;52.220;5.160;2023-07-29T11:10:11;3.20;;;1.10;;
68229;SDS011;55048;52.220;5.160;2023-07-29T11:12:41;4.47;;;1.73;;
68229;SDS011;55048;52.220;5.160;2023-07-29T11:17:58;2.42;;;1.60;;
68229;SDS011;55048;52.220;5.160;2023-07-29T11:20:28;3.33;;;1.55;;
68229;SDS011;55048;52.220;5.160;2023-07-29T11:22:59;4.95;;;1.60;;
68229;SDS011;55048;52.220;5.160;2023-07-29T11:25:26;5.07;;;1.40;;
68229;SDS011;55048;52.220;5.160;2023-07-29T11:27:53;2.03;;;1.45;;
68229;SDS011;55048;52.220;5.160;2023-07-29T11:30:20;2.03;;;1.20;;
68229;SDS011;55048;52.220;5.160;2023-07-29T11:32:46;1.17;;;0.90;;
68229;SDS011;55048;52.220;5.160;2023-07-29T11:35:13;2.15;;;0.90;;
68229;SDS011;55048;52.220;5.160;2023-07-29T11:37:40;2.90;;;0.82;;
68229;SDS011;55048;52.220;5.160;2023-07-29T11:40:07;0.82;;;0.60;;
68229;SDS011;55048;52.220;5.160;2023-07-29T11:42:35;2.90;;;0.60;;
68229;SDS011;55048;52.220;5.160;2023-07-29T11:45:02;1.58;;;0.50;;
68229;SDS011;55048;52.220;5.160;2023-07-29T11:47:28;0.55;;;0.40;;
68229;SDS011;55048;52.220;5.160;2023-07-29T11:49:57;1.90;;;0.50;;
68229;SDS011;55048;52.220;5.160;2023-07-29T11:52:23;0.60;;;0.40;;
68229;SDS011;55048;52.220;5.160;2023-07-29T11:54:49;0.82;;;0.40;;
68229;SDS011;55048;52.220;5.160;2023-07-29T11:57:15;1.40;;;0.30;;
68229;SDS011;55048;52.220;5.160;2023-07-29T11:59:43;0.60;;;0.30;;
68229;SDS011;55048;52.220;5.160;2023-07-29T12:02:13;0.55;;;0.30;;
68229;SDS011;55048;52.220;5.160;2023-07-29T12:04:41;0.93;;;0.40;;
68229;SDS011;55048;52.220;5.160;2023-07-29T12:07:08;0.47;;;0.30;;
68229;SDS011;55048;52.220;5.160;2023-07-29T12:09:34;1.85;;;0.40;;
68229;SDS011;55048;52.220;5.160;2023-07-29T12:12:01;0.52;;;0.30;;
68229;SDS011;55048;52.220;5.160;2023-07-29T12:14:28;0.90;;;0.40;;
68229;SDS011;55048;52.220;5.160;2023-07-29T12:16:54;0.60;;;0.32;;
68229;SDS011;55048;52.220;5.160;2023-07-29T12:19:19;1.02;;;0.40;;
68229;SDS011;55048;52.220;5.160;2023-07-29T12:21:47;4.07;;;0.40;;
68229;SDS011;55048;52.220;5.160;2023-07-29T12:24:13;0.73;;;0.40;;
68229;SDS011;55048;52.220;5.160;2023-07-29T12:26:40;0.80;;;0.40;;
68229;SDS011;55048;52.220;5.160;2023-07-29T12:29:16;0.82;;;0.40;;
68229;SDS011;55048;52.220;5.160;2023-07-29T12:31:44;1.58;;;0.60;;
68229;SDS011;55048;52.220;5.160;2023-07-29T12:34:16;1.00;;;0.40;;
68229;SDS011;55048;52.220;5.160;2023-07-29T12:36:44;1.33;;;0.57;;
68229;SDS011;55048;52.220;5.160;2023-07-29T12:39:21;3.22;;;1.13;;
68229;SDS011;55048;52.220;5.160;2023-07-29T12:41:49;1.77;;;0.50;;
68229;SDS011;55048;52.220;5.160;2023-07-29T12:44:15;1.73;;;0.60;;
68229;SDS011;55048;52.220;5.160;2023-07-29T12:46:41;2.25;;;0.55;;
68229;SDS011;55048;52.220;5.160;2023-07-29T12:49:06;0.80;;;0.50;;
68229;SDS011;55048;52.220;5.160;2023-07-29T12:51:32;1.50;;;0.82;;
68229;SDS011;55048;52.220;5.160;2023-07-29T12:53:58;2.45;;;0.80;;
68229;SDS011;55048;52.220;5.160;2023-07-29T12:56:23;2.83;;;0.60;;
68229;SDS011;55048;52.220;5.160;2023-07-29T12:58:49;4.22;;;0.75;;
68229;SDS011;55048;52.220;5.160;2023-07-29T13:01:14;0.73;;;0.60;;
68229;SDS011;55048;52.220;5.160;2023-07-29T13:03:47;0.70;;;0.50;;
68229;SDS011;55048;52.220;5.160;2023-07-29T13:06:13;1.45;;;0.60;;
68229;SDS011;55048;52.220;5.160;2023-07-29T13:08:38;1.23;;;0.70;;
68229;SDS011;55048;52.220;5.160;2023-07-29T13:11:04;1.15;;;0.60;;
68229;SDS011;55048;52.220;5.160;2023-07-29T13:13:30;1.08;;;0.70;;
68229;SDS011;55048;52.220;5.160;2023-07-29T13:15:56;1.30;;;0.73;;
68229;SDS011;55048;52.220;5.160;2023-07-29T13:18:22;2.20;;;0.70;;
68229;SDS011;55048;52.220;5.160;2023-07-29T13:20:47;4.20;;;0.80;;
68229;SDS011;55048;52.220;5.160;2023-07-29T13:23:13;4.35;;;0.70;;
68229;SDS011;55048;52.220;5.160;2023-07-29T13:25:39;1.27;;;0.65;;
68229;SDS011;55048;52.220;5.160;2023-07-29T13:28:04;1.90;;;0.70;;
68229;SDS011;55048;52.220;5.160;2023-07-29T13:30:30;2.28;;;0.77;;
68229;SDS011;55048;52.220;5.160;2023-07-29T13:32:55;2.95;;;0.77;;
68229;SDS011;55048;52.220;5.160;2023-07-29T13:35:21;1.88;;;0.80;;
68229;SDS011;55048;52.220;5.160;2023-07-29T13:37:47;1.92;;;0.70;;
68229;SDS011;55048;52.220;5.160;2023-07-29T13:40:12;3.03;;;0.80;;
68229;SDS011;55048;52.220;5.160;2023-07-29T13:42:37;3.38;;;0.80;;
68229;SDS011;55048;52.220;5.160;2023-07-29T13:45:03;1.20;;;0.80;;
68229;SDS011;55048;52.220;5.160;2023-07-29T13:47:29;2.67;;;0.70;;
68229;SDS011;55048;52.220;5.160;2023-07-29T13:49:54;4.10;;;0.90;;
68229;SDS011;55048;52.220;5.160;2023-07-29T13:52:20;1.63;;;0.65;;
68229;SDS011;55048;52.220;5.160;2023-07-29T13:54:45;3.03;;;0.80;;
68229;SDS011;55048;52.220;5.160;2023-07-29T13:57:11;1.20;;;0.60;;
68229;SDS011;55048;52.220;5.160;2023-07-29T13:59:36;5.72;;;0.60;;
68229;SDS011;55048;52.220;5.160;2023-07-29T14:02:05;1.67;;;0.60;;
68229;SDS011;55048;52.220;5.160;2023-07-29T14:04:31;2.50;;;0.77;;
68229;SDS011;55048;52.220;5.160;2023-07-29T14:06:57;1.63;;;0.70;;
68229;SDS011;55048;52.220;5.160;2023-07-29T14:09:22;2.08;;;0.60;;
68229;SDS011;55048;52.220;5.160;2023-07-29T14:11:48;2.20;;;0.63;;
68229;SDS011;55048;52.220;5.160;2023-07-29T14:14:14;2.22;;;0.80;;
68229;SDS011;55048;52.220;5.160;2023-07-29T14:16:40;1.60;;;0.60;;
68229;SDS011;55048;52.220;5.160;2023-07-29T14:19:05;1.92;;;0.60;;
68229;SDS011;55048;52.220;5.160;2023-07-29T14:21:31;0.75;;;0.43;;
68229;SDS011;55048;52.220;5.160;2023-07-29T14:23:56;5.07;;;0.63;;
68229;SDS011;55048;52.220;5.160;2023-07-29T14:26:22;1.08;;;0.40;;
68229;SDS011;55048;52.220;5.160;2023-07-29T14:28:47;0.82;;;0.50;;
68229;SDS011;55048;52.220;5.160;2023-07-29T14:31:14;3.03;;;0.50;;
68229;SDS011;55048;52.220;5.160;2023-07-29T14:33:39;3.25;;;0.50;;
68229;SDS011;55048;52.220;5.160;2023-07-29T14:36:05;1.17;;;0.40;;
68229;SDS011;55048;52.220;5.160;2023-07-29T14:38:32;1.00;;;0.40;;
68229;SDS011;55048;52.220;5.160;2023-07-29T14:40:58;3.90;;;0.40;;
68229;SDS011;55048;52.220;5.160;2023-07-29T14:43:23;1.08;;;0.40;;
68229;SDS011;55048;52.220;5.160;2023-07-29T14:45:49;1.20;;;0.40;;
68229;SDS011;55048;52.220;5.160;2023-07-29T14:48:14;3.20;;;0.50;;
68229;SDS011;55048;52.220;5.160;2023-07-29T14:50:39;1.20;;;0.38;;
68229;SDS011;55048;52.220;5.160;2023-07-29T14:53:05;1.00;;;0.30;;
68229;SDS011;55048;52.220;5.160;2023-07-29T14:55:30;2.13;;;0.40;;
68229;SDS011;55048;52.220;5.160;2023-07-29T14:57:56;1.55;;;0.40;;